Foreston, South Carolina
Current Conditions -  °F | °C
As of 1:15 AM on Monday 22 Dec 2014 (Local Time) from KSMS Reporting Station
Light Rain Light Rain  
Wind Chill: 41°   Ceiling: 900
Heat Index: 45°   Visibility: 3mi
Dew Point: 43°   Wind: 7mph
Humidity: 93%   Direction: 40°NE
Pressure: 30.12"   Gusts: NA
Location:  33.6434°N, 80.1966°W
Report Text: KSMS 220615Z AUTO 04006KT 3SM -RA FEW003 BKN009 OVC019 07/06 A3012 RMK AO2
Loading
Personal Weather Stations






























Interactive Weather Map New forecast layout! Learn more

10-Day Weather Forecast

Advertisements
Track Severe Weather on mobile